sensor_id;sensor_type;location;lat;lon;timestamp;pressure;altitude;pressure_sealevel;temperature;humidity
43312;BME280;30041;48.300;16.352;2023-05-01T00:02:23;100120.88;;;22.72;43.39
43312;BME280;30041;48.300;16.352;2023-05-01T00:04:48;100119.25;;;22.71;43.06
43312;BME280;30041;48.300;16.352;2023-05-01T00:07:14;100126.28;;;22.72;43.41
43312;BME280;30041;48.300;16.352;2023-05-01T00:09:39;100117.94;;;22.74;43.21
43312;BME280;30041;48.300;16.352;2023-05-01T00:12:05;100123.34;;;22.74;43.26
43312;BME280;30041;48.300;16.352;2023-05-01T00:14:30;100123.34;;;22.74;43.38
43312;BME280;30041;48.300;16.352;2023-05-01T00:16:56;100111.94;;;22.72;43.13
43312;BME280;30041;48.300;16.352;2023-05-01T00:19:21;100104.44;;;22.74;43.16
43312;BME280;30041;48.300;16.352;2023-05-01T00:21:47;100101.13;;;22.72;43.07
43312;BME280;30041;48.300;16.352;2023-05-01T00:24:15;100102.81;;;22.73;43.29
43312;BME280;30041;48.300;16.352;2023-05-01T00:26:41;100102.31;;;22.76;43.11
43312;BME280;30041;48.300;16.352;2023-05-01T00:29:07;100104.22;;;22.75;42.97
43312;BME280;30041;48.300;16.352;2023-05-01T00:31:32;100105.84;;;22.76;42.91
43312;BME280;30041;48.300;16.352;2023-05-01T00:33:58;100108.75;;;22.75;43.12
43312;BME280;30041;48.300;16.352;2023-05-01T00:36:24;100103.34;;;22.75;42.94
43312;BME280;30041;48.300;16.352;2023-05-01T00:38:49;100106.06;;;22.75;42.92
43312;BME280;30041;48.300;16.352;2023-05-01T00:41:15;100100.66;;;22.75;43.22
43312;BME280;30041;48.300;16.352;2023-05-01T00:43:40;100102.31;;;22.76;43.06
43312;BME280;30041;48.300;16.352;2023-05-01T00:46:06;100096.91;;;22.76;43.19
43312;BME280;30041;48.300;16.352;2023-05-01T00:48:32;100103.94;;;22.77;43.07
43312;BME280;30041;48.300;16.352;2023-05-01T00:50:59;100087.16;;;22.75;43.19
43312;BME280;30041;48.300;16.352;2023-05-01T00:53:26;100093.41;;;22.75;43.07
43312;BME280;30041;48.300;16.352;2023-05-01T00:55:52;100092.31;;;22.76;42.98
43312;BME280;30041;48.300;16.352;2023-05-01T00:58:18;100098.53;;;22.77;42.96
43312;BME280;30041;48.300;16.352;2023-05-01T01:00:44;100094.81;;;22.78;43.31
43312;BME280;30041;48.300;16.352;2023-05-01T01:03:09;100097.28;;;22.79;43.22
43312;BME280;30041;48.300;16.352;2023-05-01T01:05:41;100091.03;;;22.79;42.99
43312;BME280;30041;48.300;16.352;2023-05-01T01:08:21;100088.81;;;22.76;43.27
43312;BME280;30041;48.300;16.352;2023-05-01T01:13:53;100086.34;;;22.74;43.15
43312;BME280;30041;48.300;16.352;2023-05-01T01:21:34;100094.22;;;22.76;42.96
43312;BME280;30041;48.300;16.352;2023-05-01T01:24:27;100085.63;;;22.79;43.19
43312;BME280;30041;48.300;16.352;2023-05-01T01:29:55;100086.09;;;22.76;42.97
43312;BME280;30041;48.300;16.352;2023-05-01T01:32:54;100092.09;;;22.78;42.83
43312;BME280;30041;48.300;16.352;2023-05-01T01:35:25;100086.69;;;22.78;43.09
43312;BME280;30041;48.300;16.352;2023-05-01T01:37:59;100093.13;;;22.77;43.12
43312;BME280;30041;48.300;16.352;2023-05-01T01:40:33;100086.22;;;22.81;42.85
43312;BME280;30041;48.300;16.352;2023-05-01T01:43:04;100090.22;;;22.78;43.02
43312;BME280;30041;48.300;16.352;2023-05-01T01:45:37;100078.38;;;22.79;43.01
43312;BME280;30041;48.300;16.352;2023-05-01T01:48:05;100083.75;;;22.79;42.78
43312;BME280;30041;48.300;16.352;2023-05-01T01:50:36;100090.22;;;22.78;42.97
43312;BME280;30041;48.300;16.352;2023-05-01T01:53:05;100096.44;;;22.79;43.09
43312;BME280;30041;48.300;16.352;2023-05-01T01:55:34;100084.00;;;22.78;42.99
43312;BME280;30041;48.300;16.352;2023-05-01T01:58:02;100081.28;;;22.78;42.96
43312;BME280;30041;48.300;16.352;2023-05-01T02:00:28;100085.63;;;22.79;43.20
43312;BME280;30041;48.300;16.352;2023-05-01T02:02:55;100082.09;;;22.78;43.13
43312;BME280;30041;48.300;16.352;2023-05-01T02:05:24;100081.41;;;22.83;43.03
43312;BME280;30041;48.300;16.352;2023-05-01T02:07:51;100065.66;;;22.80;42.92
43312;BME280;30041;48.300;16.352;2023-05-01T02:10:17;100071.88;;;22.80;43.08
43312;BME280;30041;48.300;16.352;2023-05-01T02:12:46;100070.25;;;22.79;43.16
43312;BME280;30041;48.300;16.352;2023-05-01T02:15:14;100072.69;;;22.81;43.03
43312;BME280;30041;48.300;16.352;2023-05-01T02:17:41;100064.38;;;22.83;42.97
43312;BME280;30041;48.300;16.352;2023-05-01T02:20:08;100061.88;;;22.81;43.14
43312;BME280;30041;48.300;16.352;2023-05-01T02:22:38;100054.84;;;22.80;43.10
43312;BME280;30041;48.300;16.352;2023-05-01T02:25:07;100054.84;;;22.80;42.99
43312;BME280;30041;48.300;16.352;2023-05-01T02:27:37;100049.69;;;22.78;43.20
43312;BME280;30041;48.300;16.352;2023-05-01T02:30:05;100041.56;;;22.78;42.96
43312;BME280;30041;48.300;16.352;2023-05-01T02:32:31;100044.03;;;22.80;43.01
43312;BME280;30041;48.300;16.352;2023-05-01T02:34:56;100038.66;;;22.80;43.18
43312;BME280;30041;48.300;16.352;2023-05-01T02:37:22;100045.69;;;22.81;43.03
43312;BME280;30041;48.300;16.352;2023-05-01T02:39:48;100040.88;;;22.83;42.80
43312;BME280;30041;48.300;16.352;2023-05-01T02:42:15;100040.88;;;22.83;42.93
43312;BME280;30041;48.300;16.352;2023-05-01T02:44:49;100034.28;;;22.79;42.76
43312;BME280;30041;48.300;16.352;2023-05-01T02:47:19;100030.53;;;22.80;42.79
43312;BME280;30041;48.300;16.352;2023-05-01T02:49:45;100026.19;;;22.79;42.97
43312;BME280;30041;48.300;16.352;2023-05-01T02:52:13;100033.25;;;22.80;43.21
43312;BME280;30041;48.300;16.352;2023-05-01T02:54:38;100041.09;;;22.82;43.04
43312;BME280;30041;48.300;16.352;2023-05-01T02:57:04;100033.25;;;22.80;43.21
43312;BME280;30041;48.300;16.352;2023-05-01T02:59:31;100032.44;;;22.79;42.94
43312;BME280;30041;48.300;16.352;2023-05-01T03:01:56;100025.94;;;22.80;42.90
43312;BME280;30041;48.300;16.352;2023-05-01T03:04:22;100030.53;;;22.80;43.05
43312;BME280;30041;48.300;16.352;2023-05-01T03:06:47;100030.53;;;22.80;42.84
43312;BME280;30041;48.300;16.352;2023-05-01T03:09:13;100030.28;;;22.82;43.04
43312;BME280;30041;48.300;16.352;2023-05-01T03:11:38;100024.53;;;22.78;43.03
43312;BME280;30041;48.300;16.352;2023-05-01T03:14:04;100027.56;;;22.82;43.08
43312;BME280;30041;48.300;16.352;2023-05-01T03:16:29;100023.25;;;22.80;43.02
43312;BME280;30041;48.300;16.352;2023-05-01T03:18:55;100021.34;;;22.81;42.78
43312;BME280;30041;48.300;16.352;2023-05-01T03:21:20;100019.47;;;22.82;42.84
43312;BME280;30041;48.300;16.352;2023-05-01T03:23:46;100025.22;;;22.85;42.73
43312;BME280;30041;48.300;16.352;2023-05-01T03:26:11;100022.44;;;22.80;43.15
43312;BME280;30041;48.300;16.352;2023-05-01T03:28:37;100019.47;;;22.82;43.04
43312;BME280;30041;48.300;16.352;2023-05-01T03:31:02;100024.66;;;22.83;43.02
43312;BME280;30041;48.300;16.352;2023-05-01T03:33:28;100027.34;;;22.83;43.13
43312;BME280;30041;48.300;16.352;2023-05-01T03:36:03;100022.44;;;22.80;42.76
43312;BME280;30041;48.300;16.352;2023-05-01T03:38:30;100020.91;;;22.84;42.90
43312;BME280;30041;48.300;16.352;2023-05-01T03:40:55;100018.44;;;22.83;43.08
43312;BME280;30041;48.300;16.352;2023-05-01T03:43:21;100025.22;;;22.85;42.95
43312;BME280;30041;48.300;16.352;2023-05-01T03:45:46;100028.16;;;22.84;43.04
43312;BME280;30041;48.300;16.352;2023-05-01T03:48:12;100024.66;;;22.83;42.89
43312;BME280;30041;48.300;16.352;2023-05-01T03:50:37;100021.13;;;22.83;43.30
43312;BME280;30041;48.300;16.352;2023-05-01T03:53:03;100019.47;;;22.82;42.87
43312;BME280;30041;48.300;16.352;2023-05-01T03:55:28;100025.22;;;22.85;43.01
43312;BME280;30041;48.300;16.352;2023-05-01T03:57:54;100022.75;;;22.84;42.94
43312;BME280;30041;48.300;16.352;2023-05-01T04:00:19;100021.94;;;22.83;43.15
43312;BME280;30041;48.300;16.352;2023-05-01T04:02:45;100018.66;;;22.81;43.08
43312;BME280;30041;48.300;16.352;2023-05-01T04:05:10;100019.25;;;22.83;42.90
43312;BME280;30041;48.300;16.352;2023-05-01T04:07:36;100023.13;;;22.87;42.68
43312;BME280;30041;48.300;16.352;2023-05-01T04:10:02;100020.06;;;22.84;43.13
43312;BME280;30041;48.300;16.352;2023-05-01T04:12:27;100020.91;;;22.84;42.96
43312;BME280;30041;48.300;16.352;2023-05-01T04:14:53;100019.47;;;22.82;43.07
43312;BME280;30041;48.300;16.352;2023-05-01T04:17:18;100019.25;;;22.83;43.13
43312;BME280;30041;48.300;16.352;2023-05-01T04:19:44;100016.53;;;22.83;43.02
43312;BME280;30041;48.300;16.352;2023-05-01T04:22:09;100018.19;;;22.84;43.00
43312;BME280;30041;48.300;16.352;2023-05-01T04:24:35;100030.06;;;22.83;42.76
43312;BME280;30041;48.300;16.352;2023-05-01T04:27:01;100023.25;;;22.80;43.04
43312;BME280;30041;48.300;16.352;2023-05-01T04:29:26;100021.94;;;22.83;43.08
43312;BME280;30041;48.300;16.352;2023-05-01T04:31:52;100020.91;;;22.84;43.08
43312;BME280;30041;48.300;16.352;2023-05-01T04:34:17;100024.41;;;22.85;43.13
43312;BME280;30041;48.300;16.352;2023-05-01T04:36:42;100024.41;;;22.85;43.02
43312;BME280;30041;48.300;16.352;2023-05-01T04:39:08;100026.53;;;22.83;43.42
43312;BME280;30041;48.300;16.352;2023-05-01T04:41:33;100024.06;;;22.81;42.95
43312;BME280;30041;48.300;16.352;2023-05-01T04:43:59;100018.66;;;22.81;42.87
43312;BME280;30041;48.300;16.352;2023-05-01T04:46:24;100017.34;;;22.84;43.36
43312;BME280;30041;48.300;16.352;2023-05-01T04:48:50;100023.59;;;22.84;43.10
43312;BME280;30041;48.300;16.352;2023-05-01T04:51:15;100026.53;;;22.83;42.95
43312;BME280;30041;48.300;16.352;2023-05-01T04:53:41;100027.13;;;22.85;43.27
43312;BME280;30041;48.300;16.352;2023-05-01T04:56:06;100030.06;;;22.83;43.18
43312;BME280;30041;48.300;16.352;2023-05-01T04:58:32;100021.94;;;22.83;43.08
43312;BME280;30041;48.300;16.352;2023-05-01T05:00:57;100019.47;;;22.82;43.38
43312;BME280;30041;48.300;16.352;2023-05-01T05:03:23;100028.53;;;22.87;42.93
43312;BME280;30041;48.300;16.352;2023-05-01T05:05:48;100030.06;;;22.83;43.30
43312;BME280;30041;48.300;16.352;2023-05-01T05:08:14;100030.63;;;22.85;43.19
43312;BME280;30041;48.300;16.352;2023-05-01T05:10:39;100024.41;;;22.85;43.21
43312;BME280;30041;48.300;16.352;2023-05-01T05:13:05;100025.72;;;22.82;42.97
43312;BME280;30041;48.300;16.352;2023-05-01T05:15:30;100028.75;;;22.86;43.32
43312;BME280;30041;48.300;16.352;2023-05-01T05:17:56;100023.59;;;22.84;43.37
43312;BME280;30041;48.300;16.352;2023-05-01T05:20:21;100021.94;;;22.83;43.20
43312;BME280;30041;48.300;16.352;2023-05-01T05:22:47;100021.94;;;22.83;43.24
43312;BME280;30041;48.300;16.352;2023-05-01T05:25:12;100024.66;;;22.83;43.35
43312;BME280;30041;48.300;16.352;2023-05-01T05:27:38;100031.72;;;22.84;43.40
43312;BME280;30041;48.300;16.352;2023-05-01T05:30:07;100034.41;;;22.84;43.13
43312;BME280;30041;48.300;16.352;2023-05-01T05:32:32;100032.53;;;22.85;43.41
43312;BME280;30041;48.300;16.352;2023-05-01T05:34:58;100034.16;;;22.86;43.04
43312;BME280;30041;48.300;16.352;2023-05-01T05:37:24;100033.34;;;22.85;43.20
43312;BME280;30041;48.300;16.352;2023-05-01T05:39:49;100034.41;;;22.84;43.12
43312;BME280;30041;48.300;16.352;2023-05-01T05:42:15;100031.44;;;22.86;43.32
43312;BME280;30041;48.300;16.352;2023-05-01T05:44:42;100042.84;;;22.88;43.04
43312;BME280;30041;48.300;16.352;2023-05-01T05:47:07;100037.69;;;22.86;42.93
43312;BME280;30041;48.300;16.352;2023-05-01T05:49:33;100029.81;;;22.85;43.20
43312;BME280;30041;48.300;16.352;2023-05-01T05:51:58;100026.63;;;22.88;43.18
43312;BME280;30041;48.300;16.352;2023-05-01T05:54:24;100031.22;;;22.87;43.41
43312;BME280;30041;48.300;16.352;2023-05-01T05:56:49;100030.50;;;22.92;43.22
43312;BME280;30041;48.300;16.352;2023-05-01T05:59:15;100040.50;;;22.91;43.16
43312;BME280;30041;48.300;16.352;2023-05-01T06:01:40;100037.22;;;22.89;43.16
43312;BME280;30041;48.300;16.352;2023-05-01T06:04:05;100037.72;;;22.63;41.81
43312;BME280;30041;48.300;16.352;2023-05-01T06:06:32;100028.19;;;22.25;37.63
43312;BME280;30041;48.300;16.352;2023-05-01T06:08:57;100030.47;;;22.09;39.29
43312;BME280;30041;48.300;16.352;2023-05-01T06:11:23;100033.28;;;22.14;40.15
43312;BME280;30041;48.300;16.352;2023-05-01T06:13:49;100031.66;;;22.13;41.21
43312;BME280;30041;48.300;16.352;2023-05-01T06:16:14;100030.00;;;22.12;41.84
43312;BME280;30041;48.300;16.352;2023-05-01T06:18:40;100026.84;;;22.15;42.24
43312;BME280;30041;48.300;16.352;2023-05-01T06:21:06;100019.19;;;22.12;42.61
43312;BME280;30041;48.300;16.352;2023-05-01T06:23:31;100020.16;;;22.18;42.68
43312;BME280;30041;48.300;16.352;2023-05-01T06:25:57;100025.19;;;22.14;43.47
43312;BME280;30041;48.300;16.352;2023-05-01T06:28:22;100024.16;;;22.15;43.42
43312;BME280;30041;48.300;16.352;2023-05-01T06:30:48;100023.78;;;22.12;43.16
43312;BME280;30041;48.300;16.352;2023-05-01T06:33:13;100021.56;;;22.09;43.44
43312;BME280;30041;48.300;16.352;2023-05-01T06:35:39;100019.91;;;22.08;43.32
43312;BME280;30041;48.300;16.352;2023-05-01T06:38:04;100008.66;;;22.11;43.50
43312;BME280;30041;48.300;16.352;2023-05-01T06:40:30;100017.91;;;22.03;43.79
43312;BME280;30041;48.300;16.352;2023-05-01T06:42:56;100015.19;;;22.03;43.69
43312;BME280;30041;48.300;16.352;2023-05-01T06:45:21;100016.84;;;22.04;44.23
43312;BME280;30041;48.300;16.352;2023-05-01T06:47:47;100026.00;;;22.03;44.22
43312;BME280;30041;48.300;16.352;2023-05-01T06:50:12;100023.19;;;22.10;43.36
43312;BME280;30041;48.300;16.352;2023-05-01T06:52:39;100021.44;;;22.04;43.46
43312;BME280;30041;48.300;16.352;2023-05-01T06:55:04;100022.84;;;22.06;43.72
43312;BME280;30041;48.300;16.352;2023-05-01T06:57:30;100026.59;;;22.05;43.02
43312;BME280;30041;48.300;16.352;2023-05-01T06:59:55;100028.16;;;22.13;43.43
43312;BME280;30041;48.300;16.352;2023-05-01T07:02:21;100028.69;;;22.03;42.46
43312;BME280;30041;48.300;16.352;2023-05-01T07:04:47;100016.50;;;22.01;43.36
43312;BME280;30041;48.300;16.352;2023-05-01T07:07:12;100021.28;;;21.98;43.15
43312;BME280;30041;48.300;16.352;2023-05-01T07:09:39;100020.94;;;21.95;43.70
43312;BME280;30041;48.300;16.352;2023-05-01T07:12:05;100020.94;;;21.95;43.88
43312;BME280;30041;48.300;16.352;2023-05-01T07:14:30;100009.69;;;21.98;43.72
43312;BME280;30041;48.300;16.352;2023-05-01T07:16:56;100013.44;;;21.97;43.76
43312;BME280;30041;48.300;16.352;2023-05-01T07:19:21;100014.25;;;21.97;43.56
43312;BME280;30041;48.300;16.352;2023-05-01T07:21:47;100019.66;;;21.97;42.99
43312;BME280;30041;48.300;16.352;2023-05-01T07:24:12;100018.47;;;21.93;42.84
43312;BME280;30041;48.300;16.352;2023-05-01T07:26:38;100020.22;;;21.88;42.74
43312;BME280;30041;48.300;16.352;2023-05-01T07:29:04;100014.81;;;21.88;42.38
43312;BME280;30041;48.300;16.352;2023-05-01T07:31:29;100015.41;;;21.90;41.82
43312;BME280;30041;48.300;16.352;2023-05-01T07:33:55;100005.69;;;21.89;42.08
43312;BME280;30041;48.300;16.352;2023-05-01T07:36:20;100019.88;;;21.84;40.71
43312;BME280;30041;48.300;16.352;2023-05-01T07:38:47;100013.06;;;21.82;40.43
43312;BME280;30041;48.300;16.352;2023-05-01T07:41:12;100010.47;;;21.75;40.33
43312;BME280;30041;48.300;16.352;2023-05-01T07:43:38;100008.59;;;21.87;41.18
43312;BME280;30041;48.300;16.352;2023-05-01T07:46:03;100010.25;;;21.88;41.74
43312;BME280;30041;48.300;16.352;2023-05-01T07:48:29;100010.47;;;21.87;42.17
43312;BME280;30041;48.300;16.352;2023-05-01T07:50:55;100007.31;;;21.90;42.04
43312;BME280;30041;48.300;16.352;2023-05-01T07:53:21;100001.91;;;21.90;42.01
43312;BME280;30041;48.300;16.352;2023-05-01T07:55:47;100005.09;;;21.87;42.45
43312;BME280;30041;48.300;16.352;2023-05-01T07:58:12;100001.91;;;21.90;42.10
43312;BME280;30041;48.300;16.352;2023-05-01T08:00:38;99999.91;;;21.85;42.18
43312;BME280;30041;48.300;16.352;2023-05-01T08:03:03;100002.16;;;21.88;42.34
43312;BME280;30041;48.300;16.352;2023-05-01T08:05:29;100000.50;;;21.87;42.54
43312;BME280;30041;48.300;16.352;2023-05-01T08:07:54;99997.81;;;21.87;42.47
43312;BME280;30041;48.300;16.352;2023-05-01T08:10:20;99999.69;;;21.87;42.54
43312;BME280;30041;48.300;16.352;2023-05-01T08:12:45;99989.72;;;21.87;42.45
43312;BME280;30041;48.300;16.352;2023-05-01T08:15:11;99989.13;;;21.85;42.29
43312;BME280;30041;48.300;16.352;2023-05-01T08:17:37;99996.16;;;21.86;42.27
43312;BME280;30041;48.300;16.352;2023-05-01T08:20:03;99995.34;;;21.86;42.12
43312;BME280;30041;48.300;16.352;2023-05-01T08:22:28;99990.06;;;21.79;41.33
43312;BME280;30041;48.300;16.352;2023-05-01T08:24:54;99989.22;;;21.79;40.71
43312;BME280;30041;48.300;16.352;2023-05-01T08:27:20;99985.00;;;21.71;39.51
43312;BME280;30041;48.300;16.352;2023-05-01T08:29:45;99984.28;;;21.64;39.47
43312;BME280;30041;48.300;16.352;2023-05-01T08:32:11;99980.97;;;21.62;39.36
43312;BME280;30041;48.300;16.352;2023-05-01T08:34:36;99980.72;;;21.63;39.05
43312;BME280;30041;48.300;16.352;2023-05-01T08:37:02;99977.81;;;21.65;40.01
43312;BME280;30041;48.300;16.352;2023-05-01T08:39:27;99972.41;;;21.65;38.67
43312;BME280;30041;48.300;16.352;2023-05-01T08:41:53;99969.81;;;21.58;38.80
43312;BME280;30041;48.300;16.352;2023-05-01T08:44:19;99972.88;;;21.62;38.78
43312;BME280;30041;48.300;16.352;2023-05-01T08:47:10;99971.69;;;21.58;38.34
43312;BME280;30041;48.300;16.352;2023-05-01T08:49:36;99977.56;;;21.54;39.10
43312;BME280;30041;48.300;16.352;2023-05-01T08:52:05;99976.28;;;21.57;38.51
43312;BME280;30041;48.300;16.352;2023-05-01T08:54:32;99978.72;;;21.59;39.07
43312;BME280;30041;48.300;16.352;2023-05-01T08:57:05;99971.94;;;21.68;39.65
43312;BME280;30041;48.300;16.352;2023-05-01T08:59:33;99977.22;;;21.63;39.75
43312;BME280;30041;48.300;16.352;2023-05-01T09:02:00;99968.53;;;21.61;39.97
43312;BME280;30041;48.300;16.352;2023-05-01T09:04:30;99973.09;;;21.60;39.96
43312;BME280;30041;48.300;16.352;2023-05-01T09:06:58;99966.91;;;21.60;39.92
43312;BME280;30041;48.300;16.352;2023-05-01T09:09:23;99958.44;;;21.56;40.37
43312;BME280;30041;48.300;16.352;2023-05-01T09:11:49;99966.53;;;21.56;39.55
43312;BME280;30041;48.300;16.352;2023-05-01T09:14:15;99961.38;;;21.54;39.73
43312;BME280;30041;48.300;16.352;2023-05-01T09:16:40;99957.13;;;21.47;39.49
43312;BME280;30041;48.300;16.352;2023-05-01T09:19:06;99948.56;;;21.50;39.49
43312;BME280;30041;48.300;16.352;2023-05-01T09:21:31;99945.44;;;21.53;40.00
43312;BME280;30041;48.300;16.352;2023-05-01T09:23:57;99943.06;;;21.56;40.21
43312;BME280;30041;48.300;16.352;2023-05-01T09:26:23;99935.56;;;21.59;40.30
43312;BME280;30041;48.300;16.352;2023-05-01T09:28:48;99927.59;;;21.52;39.30
43312;BME280;30041;48.300;16.352;2023-05-01T09:31:21;99929.13;;;21.48;38.99
43312;BME280;30041;48.300;16.352;2023-05-01T09:33:51;99921.59;;;21.50;39.69
43312;BME280;30041;48.300;16.352;2023-05-01T09:36:17;99916.19;;;21.50;40.08
43312;BME280;30041;48.300;16.352;2023-05-01T09:38:43;99917.63;;;21.52;40.14
43312;BME280;30041;48.300;16.352;2023-05-01T09:41:09;99911.19;;;21.53;40.22
43312;BME280;30041;48.300;16.352;2023-05-01T09:43:34;99910.16;;;21.54;40.59
43312;BME280;30041;48.300;16.352;2023-05-01T09:46:07;99905.56;;;21.55;40.67
43312;BME280;30041;48.300;16.352;2023-05-01T09:48:34;99913.19;;;21.58;40.69
43312;BME280;30041;48.300;16.352;2023-05-01T09:51:00;99906.38;;;21.55;40.84
43312;BME280;30041;48.300;16.352;2023-05-01T09:53:46;99905.78;;;21.53;40.38
43312;BME280;30041;48.300;16.352;2023-05-01T09:56:11;99905.22;;;21.63;40.96
43312;BME280;30041;48.300;16.352;2023-05-01T09:58:37;99902.28;;;21.65;41.40
43312;BME280;30041;48.300;16.352;2023-05-01T10:01:02;99906.88;;;21.64;41.83
43312;BME280;30041;48.300;16.352;2023-05-01T10:03:28;99888.00;;;21.76;41.72
43312;BME280;30041;48.300;16.352;2023-05-01T10:05:54;99891.41;;;21.83;41.64
43312;BME280;30041;48.300;16.352;2023-05-01T10:08:20;99887.28;;;21.69;39.99
43312;BME280;30041;48.300;16.352;2023-05-01T10:10:59;99891.97;;;21.62;39.12
43312;BME280;30041;48.300;16.352;2023-05-01T10:13:24;99892.56;;;21.75;39.36
43312;BME280;30041;48.300;16.352;2023-05-01T10:15:50;99881.88;;;21.69;39.62
43312;BME280;30041;48.300;16.352;2023-05-01T10:18:16;99891.72;;;21.63;39.23
43312;BME280;30041;48.300;16.352;2023-05-01T10:20:42;99891.13;;;21.61;40.10
43312;BME280;30041;48.300;16.352;2023-05-01T10:23:08;99883.19;;;21.66;40.83
43312;BME280;30041;48.300;16.352;2023-05-01T10:25:35;99884.00;;;21.67;41.21
43312;BME280;30041;48.300;16.352;2023-05-01T10:28:02;99879.66;;;21.66;40.78
43312;BME280;30041;48.300;16.352;2023-05-01T10:30:28;99871.44;;;21.61;40.68
43312;BME280;30041;48.300;16.352;2023-05-01T10:32:54;99869.56;;;21.61;40.42
43312;BME280;30041;48.300;16.352;2023-05-01T10:35:25;99856.06;;;21.61;40.39
43312;BME280;30041;48.300;16.352;2023-05-01T10:38:04;99851.16;;;21.58;40.47
43312;BME280;30041;48.300;16.352;2023-05-01T10:43:31;99865.13;;;21.55;41.06
43312;BME280;30041;48.300;16.352;2023-05-01T10:51:09;99859.22;;;21.46;40.17
43312;BME280;30041;48.300;16.352;2023-05-01T10:53:36;99852.66;;;21.54;40.79
43312;BME280;30041;48.300;16.352;2023-05-01T10:56:03;99847.28;;;21.54;41.26
43312;BME280;30041;48.300;16.352;2023-05-01T11:01:42;99841.25;;;21.40;39.88
43312;BME280;30041;48.300;16.352;2023-05-01T11:09:49;99830.16;;;21.48;41.78
43312;BME280;30041;48.300;16.352;2023-05-01T11:15:09;99821.00;;;21.49;42.00
43312;BME280;30041;48.300;16.352;2023-05-01T11:20:07;99812.09;;;21.49;41.15
43312;BME280;30041;48.300;16.352;2023-05-01T11:22:34;99816.56;;;21.55;41.54
43312;BME280;30041;48.300;16.352;2023-05-01T11:25:01;99803.31;;;21.53;40.97
43312;BME280;30041;48.300;16.352;2023-05-01T11:27:27;99815.38;;;21.51;40.81
43312;BME280;30041;48.300;16.352;2023-05-01T11:29:53;99807.31;;;21.51;41.74
43312;BME280;30041;48.300;16.352;2023-05-01T11:32:23;99809.66;;;21.59;41.76
43312;BME280;30041;48.300;16.352;2023-05-01T11:34:49;99807.53;;;21.61;41.62
43312;BME280;30041;48.300;16.352;2023-05-01T11:37:15;99806.00;;;21.65;41.67
43312;BME280;30041;48.300;16.352;2023-05-01T11:39:50;99795.09;;;21.72;41.36
43312;BME280;30041;48.300;16.352;2023-05-01T11:42:19;99802.97;;;21.62;40.92
43312;BME280;30041;48.300;16.352;2023-05-01T11:45:04;99790.19;;;21.57;41.31
43312;BME280;30041;48.300;16.352;2023-05-01T11:47:32;99778.44;;;21.63;41.82
43312;BME280;30041;48.300;16.352;2023-05-01T11:49:59;99782.22;;;21.62;41.81
43312;BME280;30041;48.300;16.352;2023-05-01T11:52:25;99782.31;;;21.67;41.69
43312;BME280;30041;48.300;16.352;2023-05-01T11:54:50;99764.97;;;21.75;42.18
43312;BME280;30041;48.300;16.352;2023-05-01T11:57:16;99763.06;;;21.87;41.86
43312;BME280;30041;48.300;16.352;2023-05-01T11:59:45;99765.16;;;21.85;42.46
43312;BME280;30041;48.300;16.352;2023-05-01T12:02:18;99774.91;;;21.98;42.55
43312;BME280;30041;48.300;16.352;2023-05-01T12:04:44;99763.06;;;21.87;41.92
43312;BME280;30041;48.300;16.352;2023-05-01T12:07:19;99765.88;;;21.81;42.40
43312;BME280;30041;48.300;16.352;2023-05-01T12:09:45;99761.75;;;21.90;42.79
43312;BME280;30041;48.300;16.352;2023-05-01T12:12:11;99768.69;;;21.97;42.73
43312;BME280;30041;48.300;16.352;2023-05-01T12:14:36;99757.19;;;22.02;42.64
43312;BME280;30041;48.300;16.352;2023-05-01T12:17:04;99739.44;;;22.06;43.10
43312;BME280;30041;48.300;16.352;2023-05-01T12:19:30;99752.09;;;22.06;43.12
43312;BME280;30041;48.300;16.352;2023-05-01T12:22:06;99748.50;;;22.00;43.14
43312;BME280;30041;48.300;16.352;2023-05-01T12:24:32;99743.69;;;22.02;43.24
43312;BME280;30041;48.300;16.352;2023-05-01T12:27:00;99744.72;;;22.01;43.26
43312;BME280;30041;48.300;16.352;2023-05-01T12:29:39;99744.28;;;22.04;43.55
43312;BME280;30041;48.300;16.352;2023-05-01T12:32:04;99729.56;;;22.12;43.27
43312;BME280;30041;48.300;16.352;2023-05-01T12:34:31;99730.38;;;22.12;43.66
43312;BME280;30041;48.300;16.352;2023-05-01T12:36:56;99732.38;;;22.17;43.60
43312;BME280;30041;48.300;16.352;2023-05-01T12:39:22;99722.53;;;22.11;43.83
43312;BME280;30041;48.300;16.352;2023-05-01T12:41:50;99724.88;;;22.07;42.54
43312;BME280;30041;48.300;16.352;2023-05-01T12:44:23;99721.03;;;22.03;42.48
43312;BME280;30041;48.300;16.352;2023-05-01T12:46:59;99719.53;;;22.36;43.31
43312;BME280;30041;48.300;16.352;2023-05-01T12:49:26;99714.69;;;22.67;42.78
43312;BME280;30041;48.300;16.352;2023-05-01T12:51:53;99710.34;;;22.66;42.13
43312;BME280;30041;48.300;16.352;2023-05-01T12:54:23;99721.66;;;22.63;42.15
43312;BME280;30041;48.300;16.352;2023-05-01T12:56:50;99713.38;;;22.69;41.67
43312;BME280;30041;48.300;16.352;2023-05-01T12:59:22;99711.66;;;22.63;41.65
43312;BME280;30041;48.300;16.352;2023-05-01T13:01:56;99710.84;;;22.63;41.30
43312;BME280;30041;48.300;16.352;2023-05-01T13:04:21;99710.25;;;22.61;39.91
43312;BME280;30041;48.300;16.352;2023-05-01T13:06:47;99707.06;;;22.47;40.88
43312;BME280;30041;48.300;16.352;2023-05-01T13:09:12;99708.34;;;22.44;40.55
43312;BME280;30041;48.300;16.352;2023-05-01T13:11:38;99691.00;;;22.57;40.16
43312;BME280;30041;48.300;16.352;2023-05-01T13:14:07;99696.00;;;22.48;41.23
43312;BME280;30041;48.300;16.352;2023-05-01T13:16:33;99697.06;;;22.47;41.41